Time;durP1;ratioP1;P1;durP2;ratioP2;P2;SDS_P1;SDS_P2;PMS_P1;PMS_P2;Temp;Humidity;BMP_temperature;BMP_pressure;BME280_temperature;BME280_humidity;BME280_pressure;Samples;Min_cycle;Max_cycle;Signal;HPM_P1;HPM_P2
2023/05/16 00:01:18;;;;;;;13.27;2.97;;;8.70;99.90;;;;;;5126096;27;20048;-63
2023/05/16 00:03:44;;;;;;;12.70;3.13;;;8.70;99.90;;;;;;5093255;28;20040;-63
2023/05/16 00:06:10;;;;;;;12.07;3.38;;;8.70;99.90;;;;;;5091303;28;20488;-63
2023/05/16 00:08:35;;;;;;;12.70;3.45;;;8.70;99.90;;;;;;5093335;28;20094;-63
2023/05/16 00:11:01;;;;;;;10.93;3.05;;;8.60;99.90;;;;;;5093498;28;20400;-63
2023/05/16 00:13:28;;;;;;;10.95;2.83;;;8.70;99.90;;;;;;5092031;28;20500;-63
2023/05/16 00:15:55;;;;;;;8.45;2.45;;;8.70;99.90;;;;;;5093422;28;20044;-63
2023/05/16 00:18:21;;;;;;;9.88;2.55;;;8.70;99.90;;;;;;5125717;27;20047;-63
2023/05/16 00:20:51;;;;;;;8.63;2.67;;;8.70;99.90;;;;;;5125019;27;20052;-63
2023/05/16 00:23:16;;;;;;;9.95;2.15;;;8.70;99.90;;;;;;5093039;28;20437;-63
2023/05/16 00:25:42;;;;;;;20.85;3.30;;;8.70;99.90;;;;;;5093874;28;20174;-63
2023/05/16 00:28:08;;;;;;;10.32;2.20;;;8.70;99.90;;;;;;5092089;28;20036;-63
2023/05/16 00:30:34;;;;;;;12.77;2.80;;;8.70;99.90;;;;;;5125611;27;20078;-63
2023/05/16 00:33:00;;;;;;;15.60;2.47;;;8.70;99.90;;;;;;5126304;27;20031;-63
2023/05/16 00:35:26;;;;;;;10.48;2.63;;;8.60;99.90;;;;;;5091765;28;20047;-63
2023/05/16 00:37:52;;;;;;;13.95;2.85;;;8.60;99.90;;;;;;5075159;28;20048;-63
2023/05/16 00:40:17;;;;;;;13.35;2.72;;;8.60;99.90;;;;;;5092666;28;20515;-63
2023/05/16 00:42:43;;;;;;;8.65;2.13;;;8.60;99.90;;;;;;5091701;28;20408;-63
2023/05/16 00:45:10;;;;;;;13.02;2.65;;;8.60;99.90;;;;;;5125382;27;20455;-63
2023/05/16 00:47:36;;;;;;;12.13;2.97;;;8.60;99.90;;;;;;5125361;27;20044;-63
2023/05/16 00:50:02;;;;;;;13.63;3.28;;;8.60;99.90;;;;;;5090825;28;20040;-63
2023/05/16 00:52:29;;;;;;;14.50;2.70;;;8.60;99.90;;;;;;5099224;28;20454;-63
2023/05/16 00:54:56;;;;;;;8.52;3.03;;;8.50;99.90;;;;;;5111972;28;20071;-63
2023/05/16 00:57:22;;;;;;;15.40;4.20;;;8.50;99.90;;;;;;5111603;28;20101;-63
2023/05/16 00:59:48;;;;;;;10.68;3.30;;;8.50;99.90;;;;;;5111576;28;20131;-62
2023/05/16 01:02:14;;;;;;;12.68;2.85;;;8.50;99.90;;;;;;5112155;28;20471;-62
2023/05/16 01:04:41;;;;;;;6.78;2.42;;;8.50;99.90;;;;;;5112730;28;20661;-63
2023/05/16 01:07:07;;;;;;;14.65;3.17;;;8.50;99.90;;;;;;5111694;28;20037;-63
2023/05/16 01:09:33;;;;;;;11.82;2.92;;;8.40;99.90;;;;;;5111494;28;20391;-63
2023/05/16 01:12:17;;;;;;;10.52;2.63;;;8.40;99.90;;;;;;5112943;27;20091;-62
2023/05/16 01:15:07;;;;;;;15.15;2.95;;;8.50;99.90;;;;;;5112401;28;20549;-63
2023/05/16 01:18:11;;;;;;;15.43;2.65;;;8.50;99.90;;;;;;5110334;28;20051;-63
2023/05/16 01:20:50;;;;;;;8.35;2.50;;;8.40;99.90;;;;;;5110961;28;20053;-63
2023/05/16 01:23:22;;;;;;;10.40;2.65;;;8.40;99.90;;;;;;5111747;28;20048;-63
2023/05/16 01:26:10;;;;;;;12.40;3.00;;;8.50;99.90;;;;;;5112737;28;20047;-63
2023/05/16 01:28:38;;;;;;;8.93;2.40;;;8.40;99.90;;;;;;5111024;28;20051;-62
2023/05/16 01:31:04;;;;;;;13.60;2.80;;;8.50;99.90;;;;;;5111824;28;20035;-63
2023/05/16 01:33:30;;;;;;;11.90;3.67;;;8.40;99.90;;;;;;5109077;28;20039;-63
2023/05/16 01:36:18;;;;;;;11.13;2.75;;;8.40;99.90;;;;;;5112755;28;20045;-63
2023/05/16 01:38:51;;;;;;;14.27;2.90;;;8.40;99.90;;;;;;5070764;28;20062;-63
2023/05/16 01:41:42;;;;;;;8.93;2.22;;;8.40;99.90;;;;;;5113127;28;20047;-63
2023/05/16 01:44:17;;;;;;;13.07;2.22;;;8.40;99.90;;;;;;5116139;28;20162;-63
2023/05/16 01:46:44;;;;;;;;;;;8.40;99.90;;;;;;5116902;28;20129;-63
2023/05/16 01:49:19;;;;;;;10.70;2.65;;;8.40;99.90;;;;;;5116153;28;19915;-63
2023/05/16 01:51:54;;;;;;;10.48;2.85;;;8.30;99.90;;;;;;5114678;28;20054;-63
2023/05/16 01:54:23;;;;;;;12.90;2.97;;;8.40;99.90;;;;;;5116299;28;20044;-63
2023/05/16 01:56:54;;;;;;;12.65;3.08;;;8.30;99.90;;;;;;5115320;28;20087;-63
2023/05/16 01:59:22;;;;;;;15.93;3.53;;;8.30;99.90;;;;;;5114055;28;20460;-63
2023/05/16 02:01:48;;;;;;;9.80;2.90;;;8.30;99.90;;;;;;5116495;28;20039;-63
2023/05/16 02:04:14;;;;;;;14.10;2.90;;;8.30;99.90;;;;;;5116119;28;20449;-63
2023/05/16 02:06:41;;;;;;;14.55;3.25;;;8.30;99.90;;;;;;5115090;28;20040;-63
2023/05/16 02:09:07;;;;;;;11.77;3.22;;;8.30;99.90;;;;;;5098008;28;20032;-63
2023/05/16 02:11:33;;;;;;;11.05;2.92;;;8.20;99.90;;;;;;5114646;28;20089;-62
2023/05/16 02:13:58;;;;;;;10.65;2.85;;;8.30;99.90;;;;;;5114391;28;20074;-62
2023/05/16 02:16:24;;;;;;;10.02;2.95;;;8.30;99.90;;;;;;5101856;28;20481;-62
2023/05/16 02:18:50;;;;;;;10.40;2.70;;;8.20;99.90;;;;;;5128485;27;20381;-63
2023/05/16 02:21:16;;;;;;;6.18;1.88;;;8.20;99.90;;;;;;5094466;28;20036;-63
2023/05/16 02:23:41;;;;;;;13.18;2.85;;;8.20;99.90;;;;;;5095211;28;20047;-63
2023/05/16 02:26:07;;;;;;;13.20;2.90;;;8.20;99.90;;;;;;5077357;28;20087;-63
2023/05/16 02:28:33;;;;;;;9.25;2.60;;;8.20;99.90;;;;;;5127176;27;20120;-63
2023/05/16 02:31:00;;;;;;;9.05;2.47;;;8.20;99.90;;;;;;5128549;27;20076;-63
2023/05/16 02:33:29;;;;;;;11.10;3.67;;;8.20;99.90;;;;;;5094078;28;20497;-63
2023/05/16 02:35:55;;;;;;;9.00;2.42;;;8.20;99.90;;;;;;5095293;28;20065;-63
2023/05/16 02:38:20;;;;;;;15.20;3.95;;;8.20;99.90;;;;;;5094709;28;20039;-62
2023/05/16 02:40:47;;;;;;;11.60;2.72;;;8.10;99.90;;;;;;5127447;27;20052;-63
2023/05/16 02:43:13;;;;;;;11.98;2.45;;;8.10;99.90;;;;;;5094748;28;20051;-63
2023/05/16 02:45:38;;;;;;;11.88;2.70;;;8.10;99.90;;;;;;5076677;28;20040;-63
2023/05/16 02:48:04;;;;;;;8.75;3.17;;;8.10;99.90;;;;;;5094270;28;20115;-63
2023/05/16 02:50:30;;;;;;;12.95;2.67;;;8.10;99.90;;;;;;5127217;27;20400;-63
2023/05/16 02:52:58;;;;;;;13.40;3.05;;;8.10;99.90;;;;;;5093640;28;20148;-63
2023/05/16 02:55:24;;;;;;;8.70;2.95;;;8.10;99.90;;;;;;5093768;28;20067;-63
2023/05/16 02:57:51;;;;;;;8.35;2.55;;;8.00;99.90;;;;;;5128159;27;20059;-63
2023/05/16 03:00:17;;;;;;;16.20;2.92;;;8.10;99.90;;;;;;5127318;27;20051;-63
2023/05/16 03:02:44;;;;;;;10.70;2.78;;;8.10;99.90;;;;;;5126527;27;20044;-63
2023/05/16 03:05:10;;;;;;;10.15;2.95;;;8.10;99.90;;;;;;5094539;28;20047;-63
2023/05/16 03:07:37;;;;;;;10.60;2.22;;;8.10;99.90;;;;;;5094642;28;20405;-63
2023/05/16 03:10:03;;;;;;;11.05;2.70;;;8.10;99.90;;;;;;5094091;28;20101;-63
2023/05/16 03:12:29;;;;;;;12.82;3.08;;;8.10;99.90;;;;;;5076153;28;20048;-63
2023/05/16 03:14:54;;;;;;;10.77;1.90;;;8.10;99.90;;;;;;5127933;27;20096;-63
2023/05/16 03:17:20;;;;;;;14.48;2.78;;;8.10;99.90;;;;;;5126220;27;20039;-63
2023/05/16 03:19:46;;;;;;;11.90;2.38;;;8.10;99.90;;;;;;5076696;28;20499;-63
2023/05/16 03:22:12;;;;;;;13.52;2.35;;;8.10;99.90;;;;;;5093206;28;20036;-62
2023/05/16 03:24:38;;;;;;;9.30;2.20;;;8.00;99.90;;;;;;5126236;27;20055;-62
2023/05/16 03:27:04;;;;;;;11.88;2.20;;;8.00;99.90;;;;;;5093398;28;20036;-62
2023/05/16 03:29:30;;;;;;;10.93;2.65;;;8.00;99.90;;;;;;5075982;28;20063;-62
2023/05/16 03:31:56;;;;;;;11.02;2.33;;;8.00;99.90;;;;;;5093395;28;20047;-62
2023/05/16 03:34:22;;;;;;;11.40;3.75;;;8.00;99.90;;;;;;5093759;28;20036;-62
2023/05/16 03:36:51;;;;;;;13.73;3.25;;;8.00;99.90;;;;;;5093418;28;20174;-62
2023/05/16 03:39:16;;;;;;;8.98;2.53;;;8.00;99.90;;;;;;5126578;27;20039;-62
2023/05/16 03:41:42;;;;;;;10.63;2.95;;;7.90;99.90;;;;;;5093724;28;20182;-62
2023/05/16 03:44:08;;;;;;;13.70;2.88;;;7.90;99.90;;;;;;5126453;27;20400;-62
2023/05/16 03:46:35;;;;;;;10.50;2.75;;;7.90;99.90;;;;;;5093470;28;20032;-62
2023/05/16 03:49:00;;;;;;;14.30;2.65;;;7.90;99.90;;;;;;5094107;28;20043;-62
2023/05/16 03:51:27;;;;;;;8.52;3.33;;;7.80;99.90;;;;;;5092722;28;20040;-62
2023/05/16 03:53:53;;;;;;;9.27;2.28;;;7.80;99.90;;;;;;5126827;27;20067;-62
2023/05/16 03:56:20;;;;;;;10.25;2.28;;;7.70;99.90;;;;;;5126389;27;20122;-62
2023/05/16 03:58:47;;;;;;;11.45;3.13;;;7.70;99.90;;;;;;5093141;28;20040;-62
2023/05/16 04:01:13;;;;;;;8.48;2.00;;;7.70;99.90;;;;;;5126305;27;20048;-62
2023/05/16 04:03:38;;;;;;;11.98;2.63;;;7.70;99.90;;;;;;5091726;28;20047;-62
2023/05/16 04:06:05;;;;;;;10.00;2.72;;;7.70;99.90;;;;;;5092883;28;20044;-62
2023/05/16 04:08:31;;;;;;;8.05;2.38;;;7.70;99.90;;;;;;5074732;28;20040;-62
2023/05/16 04:10:57;;;;;;;11.65;3.17;;;7.70;99.90;;;;;;5093559;28;20038;-62
2023/05/16 04:13:22;;;;;;;9.65;2.53;;;7.70;99.90;;;;;;5092183;28;20123;-62
2023/05/16 04:15:48;;;;;;;8.98;2.38;;;7.70;99.90;;;;;;5075088;28;20052;-62
2023/05/16 04:18:14;;;;;;;10.25;2.30;;;7.70;99.90;;;;;;5125877;27;20052;-62
2023/05/16 04:20:42;;;;;;;9.43;2.40;;;7.70;99.90;;;;;;5092263;28;20131;-62
2023/05/16 04:23:10;;;;;;;7.95;2.10;;;7.80;99.90;;;;;;5126135;27;20092;-62
2023/05/16 04:25:36;;;;;;;10.32;2.72;;;7.80;99.90;;;;;;5092818;28;20445;-62
2023/05/16 04:28:02;;;;;;;11.80;2.20;;;7.90;99.90;;;;;;5125138;27;20115;-62
2023/05/16 04:30:27;;;;;;;10.05;2.53;;;8.00;99.90;;;;;;5091263;28;20031;-62
2023/05/16 04:32:53;;;;;;;16.55;3.28;;;8.00;99.90;;;;;;5074936;28;20036;-62
2023/05/16 04:35:20;;;;;;;7.25;2.13;;;8.10;99.90;;;;;;5092303;28;20047;-62
2023/05/16 04:37:46;;;;;;;12.18;2.47;;;8.20;99.90;;;;;;5125898;27;20052;-62
2023/05/16 04:40:13;;;;;;;4.63;2.03;;;8.20;99.90;;;;;;5092087;28;20127;-62
2023/05/16 04:42:39;;;;;;;14.20;3.80;;;8.30;99.90;;;;;;5125225;27;20053;-63
2023/05/16 04:45:05;;;;;;;10.55;2.70;;;8.30;99.90;;;;;;5092761;28;20389;-62
2023/05/16 04:47:31;;;;;;;9.48;2.25;;;8.40;99.90;;;;;;5091533;28;20036;-63
2023/05/16 04:49:57;;;;;;;11.48;2.67;;;8.50;99.90;;;;;;5092875;28;20040;-63
2023/05/16 04:52:22;;;;;;;14.90;3.05;;;8.50;99.90;;;;;;5092385;28;20105;-62
2023/05/16 04:54:51;;;;;;;16.92;3.60;;;8.60;99.90;;;;;;5090692;28;20113;-63
2023/05/16 04:57:16;;;;;;;11.57;2.53;;;8.70;99.90;;;;;;5092295;28;20115;-63
2023/05/16 04:59:43;;;;;;;10.43;2.10;;;8.70;99.90;;;;;;5125525;27;20131;-63
2023/05/16 05:02:08;;;;;;;10.80;2.53;;;8.70;99.90;;;;;;5107565;28;20040;-63
2023/05/16 05:04:34;;;;;;;11.25;2.58;;;8.70;99.90;;;;;;5092512;28;20043;-63
2023/05/16 05:07:00;;;;;;;17.55;2.28;;;8.80;99.90;;;;;;5091306;28;20104;-63
2023/05/16 05:09:26;;;;;;;8.18;2.25;;;8.90;99.90;;;;;;5124095;27;20063;-63
2023/05/16 05:11:52;;;;;;;8.27;1.95;;;9.00;99.90;;;;;;5091184;28;20035;-63
2023/05/16 05:14:17;;;;;;;16.90;2.95;;;9.20;99.90;;;;;;5092217;28;20040;-63
2023/05/16 05:16:43;;;;;;;10.07;2.00;;;9.30;99.90;;;;;;5090700;28;20040;-63
2023/05/16 05:19:09;;;;;;;10.18;2.13;;;9.50;99.90;;;;;;5111625;28;20036;-63
2023/05/16 05:21:34;;;;;;;9.85;2.42;;;9.60;99.90;;;;;;5094119;28;20047;-63
2023/05/16 05:24:03;;;;;;;12.32;2.75;;;9.70;99.90;;;;;;5112100;28;20053;-63
2023/05/16 05:26:29;;;;;;;11.38;2.10;;;9.70;99.90;;;;;;5110827;28;20530;-63
2023/05/16 05:28:55;;;;;;;10.25;1.83;;;9.70;99.90;;;;;;5112868;28;20035;-62
2023/05/16 05:31:21;;;;;;;14.60;3.35;;;9.60;99.90;;;;;;5097492;28;20039;-63
2023/05/16 05:33:46;;;;;;;10.32;2.92;;;9.60;99.90;;;;;;5091062;28;20048;-63
2023/05/16 05:36:12;;;;;;;9.27;2.28;;;9.50;99.90;;;;;;5091859;28;20036;-62
2023/05/16 05:38:38;;;;;;;11.50;1.90;;;9.50;99.90;;;;;;5090373;28;20036;-62
2023/05/16 05:41:04;;;;;;;7.53;2.33;;;9.40;99.90;;;;;;5090961;28;20036;-63
2023/05/16 05:43:30;;;;;;;8.07;1.45;;;9.40;99.90;;;;;;5072672;28;20473;-63
2023/05/16 05:45:55;;;;;;;10.30;2.20;;;9.40;99.90;;;;;;5092229;28;20044;-63
2023/05/16 05:48:21;;;;;;;6.80;1.92;;;9.30;99.90;;;;;;5091768;28;20036;-63
2023/05/16 05:50:47;;;;;;;9.57;1.80;;;9.20;99.90;;;;;;5124453;28;20115;-63
2023/05/16 05:53:13;;;;;;;9.70;2.25;;;9.20;99.90;;;;;;5091991;28;20036;-63
2023/05/16 05:55:41;;;;;;;7.43;1.83;;;9.20;99.90;;;;;;5124884;28;20040;-63
2023/05/16 05:58:06;;;;;;;6.18;1.92;;;9.20;99.90;;;;;;5106990;28;20073;-64
2023/05/16 06:00:32;;;;;;;9.73;1.77;;;9.30;99.90;;;;;;5122156;28;20152;-63
2023/05/16 06:02:58;;;;;;;8.48;2.03;;;9.50;99.90;;;;;;5101678;28;20047;-63
2023/05/16 06:05:23;;;;;;;8.13;1.75;;;9.60;99.90;;;;;;5114812;28;20092;-63
2023/05/16 06:07:49;;;;;;;6.47;1.50;;;9.60;99.90;;;;;;5095324;28;20073;-63
2023/05/16 06:10:15;;;;;;;6.15;1.25;;;9.70;99.90;;;;;;5091633;28;20094;-63
2023/05/16 06:12:40;;;;;;;3.95;1.35;;;9.70;99.90;;;;;;5090431;28;20536;-63
2023/05/16 06:15:07;;;;;;;8.75;1.63;;;9.80;99.90;;;;;;5073744;28;20103;-63
2023/05/16 06:17:33;;;;;;;7.50;1.92;;;9.80;99.90;;;;;;5091073;28;20119;-63
2023/05/16 06:19:58;;;;;;;9.27;1.88;;;9.80;99.90;;;;;;5089945;28;20115;-63
2023/05/16 06:22:24;;;;;;;6.40;1.52;;;10.00;99.90;;;;;;5091149;28;20044;-63
2023/05/16 06:24:50;;;;;;;8.15;1.77;;;10.10;99.90;;;;;;5091765;28;20509;-62
2023/05/16 06:27:15;;;;;;;9.68;1.77;;;10.30;99.90;;;;;;5093287;27;20036;-62
2023/05/16 06:29:41;;;;;;;6.80;1.92;;;10.40;99.90;;;;;;5102283;28;20105;-62
2023/05/16 06:32:07;;;;;;;10.60;2.25;;;10.50;99.90;;;;;;5111339;28;20133;-63
2023/05/16 06:34:32;;;;;;;7.85;1.75;;;10.60;99.90;;;;;;5108620;28;20075;-63
2023/05/16 06:36:58;;;;;;;7.10;1.50;;;10.80;99.90;;;;;;5103749;28;20039;-63
2023/05/16 06:39:24;;;;;;;7.88;1.70;;;10.90;99.90;;;;;;5097359;28;20476;-63
2023/05/16 06:41:50;;;;;;;7.03;2.03;;;11.00;99.90;;;;;;5115167;27;20052;-63
2023/05/16 06:44:16;;;;;;;7.13;1.60;;;11.00;99.90;;;;;;5097968;28;20046;-63
2023/05/16 06:46:42;;;;;;;11.15;2.45;;;11.00;99.90;;;;;;5100240;28;20500;-64
2023/05/16 06:49:08;;;;;;;12.27;2.92;;;11.10;99.90;;;;;;5092735;28;20097;-64
2023/05/16 06:51:33;;;;;;;11.10;2.40;;;11.20;99.90;;;;;;5111493;28;20123;-63
2023/05/16 06:53:59;;;;;;;12.02;2.45;;;11.10;99.90;;;;;;5112457;28;20132;-63
2023/05/16 06:56:25;;;;;;;10.23;2.40;;;11.10;99.90;;;;;;5112179;28;20039;-63
2023/05/16 06:58:51;;;;;;;7.80;2.33;;;11.10;99.90;;;;;;5111165;28;20043;-63
2023/05/16 07:01:16;;;;;;;8.50;2.55;;;11.20;99.90;;;;;;5111071;28;20065;-64
2023/05/16 07:03:42;;;;;;;6.43;1.48;;;11.40;99.90;;;;;;5111774;28;20095;-63
2023/05/16 07:06:08;;;;;;;13.57;2.65;;;11.50;99.90;;;;;;5112948;28;20480;-62
2023/05/16 07:08:34;;;;;;;8.63;2.28;;;11.50;99.90;;;;;;5095524;28;20051;-63
2023/05/16 07:11:00;;;;;;;11.93;1.80;;;11.30;99.90;;;;;;5125274;27;20093;-63
2023/05/16 07:13:26;;;;;;;9.30;2.20;;;11.20;99.90;;;;;;5090605;28;20047;-63
2023/05/16 07:15:52;;;;;;;10.00;2.17;;;11.30;99.90;;;;;;5124605;27;20383;-63
2023/05/16 07:18:17;;;;;;;9.02;2.08;;;11.50;99.90;;;;;;5124599;27;20043;-62
2023/05/16 07:20:43;;;;;;;10.25;2.10;;;11.70;99.90;;;;;;5113482;27;20048;-67
2023/05/16 07:23:09;;;;;;;8.75;2.22;;;11.90;99.90;;;;;;5106816;28;20039;-63
2023/05/16 07:25:35;;;;;;;8.50;1.88;;;11.90;99.90;;;;;;5097772;28;20036;-63
2023/05/16 07:28:01;;;;;;;5.82;1.48;;;11.80;99.90;;;;;;5102921;28;20111;-62
2023/05/16 07:30:27;;;;;;;6.70;2.00;;;11.60;99.90;;;;;;5110920;28;20638;-63
2023/05/16 07:32:53;;;;;;;9.23;1.50;;;11.30;99.90;;;;;;5094065;28;20161;-63
2023/05/16 07:35:18;;;;;;;5.78;1.92;;;11.10;99.90;;;;;;5091223;28;20126;-63
2023/05/16 07:37:44;;;;;;;8.32;2.15;;;10.90;99.90;;;;;;5091791;28;20040;-62
2023/05/16 07:40:11;;;;;;;7.95;1.77;;;10.90;99.90;;;;;;5124389;27;20600;-63
2023/05/16 07:42:36;;;;;;;5.30;1.58;;;11.00;99.90;;;;;;5110662;28;20082;-62
2023/05/16 07:45:02;;;;;;;8.23;1.90;;;11.10;99.90;;;;;;5108864;28;20054;-63
2023/05/16 07:47:28;;;;;;;12.85;2.47;;;11.30;99.90;;;;;;5108565;28;20069;-63
2023/05/16 07:49:54;;;;;;;12.80;2.88;;;11.50;99.90;;;;;;5109480;28;20067;-62
2023/05/16 07:52:19;;;;;;;11.27;2.10;;;11.70;99.90;;;;;;5110336;28;20613;-62
2023/05/16 07:54:48;;;;;;;7.05;1.90;;;11.60;99.90;;;;;;5109956;28;20036;-62
2023/05/16 07:57:17;;;;;;;10.10;2.75;;;11.50;99.90;;;;;;5109609;28;20068;-62
2023/05/16 07:59:43;;;;;;;10.52;2.80;;;11.40;99.90;;;;;;5109403;28;20042;-63
2023/05/16 08:02:10;;;;;;;18.83;3.10;;;11.40;99.90;;;;;;5109372;28;20035;-62
2023/05/16 08:04:36;;;;;;;15.05;3.38;;;11.50;99.90;;;;;;5108536;28;20040;-63
2023/05/16 08:07:02;;;;;;;8.50;1.95;;;11.40;99.90;;;;;;5110381;28;20054;-62
2023/05/16 08:09:27;;;;;;;8.45;1.65;;;11.50;99.90;;;;;;5110099;28;20040;-62
2023/05/16 08:11:53;;;;;;;8.70;1.75;;;11.60;99.90;;;;;;5109997;28;20507;-62
2023/05/16 08:14:19;;;;;;;9.20;2.28;;;11.70;99.90;;;;;;5110481;28;20132;-62
2023/05/16 08:16:45;;;;;;;9.82;1.90;;;11.90;99.90;;;;;;5088930;28;20123;-62
2023/05/16 08:19:10;;;;;;;6.38;2.35;;;12.00;99.90;;;;;;5108556;28;20522;-62
2023/05/16 08:21:37;;;;;;;9.40;2.40;;;12.10;99.90;;;;;;5102294;28;20416;-62
2023/05/16 08:24:04;;;;;;;8.32;2.13;;;12.20;99.90;;;;;;5108410;28;20582;-62
2023/05/16 08:26:31;;;;;;;6.25;2.00;;;12.20;99.90;;;;;;5106167;28;20044;-62
2023/05/16 08:28:56;;;;;;;6.43;1.75;;;12.20;99.90;;;;;;5109947;28;20123;-62
2023/05/16 08:31:22;;;;;;;8.43;2.38;;;12.10;99.90;;;;;;5110028;28;20221;-62
2023/05/16 08:33:48;;;;;;;8.35;2.47;;;12.00;99.90;;;;;;5091703;28;20380;-63
2023/05/16 08:36:14;;;;;;;8.48;2.40;;;12.00;99.90;;;;;;5109050;28;20492;-63
2023/05/16 08:38:40;;;;;;;10.93;2.17;;;12.10;99.90;;;;;;5108997;28;20059;-63
2023/05/16 08:41:06;;;;;;;6.88;2.05;;;12.30;99.90;;;;;;5110213;28;20051;-62
2023/05/16 08:43:33;;;;;;;7.90;2.00;;;12.50;99.90;;;;;;5091972;28;20091;-62
2023/05/16 08:45:59;;;;;;;13.48;2.17;;;12.40;99.90;;;;;;5110949;28;20044;-61
2023/05/16 08:48:29;;;;;;;11.43;2.10;;;12.30;99.90;;;;;;5104926;28;20038;-62
2023/05/16 08:50:55;;;;;;;8.93;2.03;;;12.00;99.90;;;;;;5098338;28;20138;-64
2023/05/16 08:53:23;;;;;;;8.60;2.13;;;12.00;99.90;;;;;;5107533;28;20241;-64
2023/05/16 08:55:50;;;;;;;9.60;1.98;;;12.00;99.90;;;;;;5110249;28;20050;-63
2023/05/16 08:58:16;;;;;;;18.80;2.58;;;11.80;99.90;;;;;;5103844;28;20048;-62
2023/05/16 09:00:43;;;;;;;10.52;2.65;;;11.80;99.90;;;;;;5108494;28;20043;-62
2023/05/16 09:03:09;;;;;;;9.32;1.98;;;11.90;99.90;;;;;;5107809;28;20039;-64
2023/05/16 09:05:35;;;;;;;10.10;2.63;;;12.10;99.90;;;;;;5111755;28;20050;-62
2023/05/16 09:08:00;;;;;;;17.92;2.60;;;12.30;99.90;;;;;;5112315;28;20035;-61
2023/05/16 09:10:26;;;;;;;7.43;1.52;;;12.50;99.90;;;;;;5112380;28;20043;-63
2023/05/16 09:12:52;;;;;;;7.97;1.73;;;12.40;99.90;;;;;;5103931;28;20055;-62
2023/05/16 09:15:22;;;;;;;10.70;2.58;;;12.30;99.90;;;;;;5091565;28;20043;-62
2023/05/16 09:17:47;;;;;;;8.10;1.73;;;12.30;99.90;;;;;;5092479;28;20039;-60
2023/05/16 09:20:18;;;;;;;6.25;1.77;;;12.60;99.90;;;;;;5092186;28;20044;-61
2023/05/16 09:22:54;;;;;;;6.65;1.70;;;12.70;99.90;;;;;;5091515;28;20044;-63
2023/05/16 09:25:21;;;;;;;9.80;1.90;;;12.70;99.90;;;;;;5092242;28;20389;-75
2023/05/16 09:27:51;;;;;;;9.93;2.33;;;12.60;99.90;;;;;;5092378;28;20044;-69
2023/05/16 09:30:33;;;;;;;8.25;1.65;;;12.60;99.90;;;;;;5073446;28;20051;-68
2023/05/16 09:32:59;;;;;;;8.07;1.75;;;12.50;99.90;;;;;;5091457;28;20565;-67
2023/05/16 09:35:25;;;;;;;6.15;1.60;;;12.60;99.90;;;;;;5120068;28;20043;-72
2023/05/16 09:37:53;;;;;;;6.78;2.15;;;12.60;99.90;;;;;;5109449;28;20047;-69
2023/05/16 09:40:21;;;;;;;9.82;2.55;;;12.60;99.90;;;;;;5094268;28;20488;-72
2023/05/16 09:42:53;;;;;;;7.97;1.73;;;12.70;99.90;;;;;;5110021;28;20092;-70
2023/05/16 09:45:19;;;;;;;11.52;1.95;;;12.80;99.90;;;;;;5111370;28;20112;-70
2023/05/16 09:47:45;;;;;;;11.27;2.00;;;12.80;99.90;;;;;;5094288;28;20119;-71
2023/05/16 09:50:14;;;;;;;7.22;1.73;;;12.80;99.90;;;;;;5110467;28;20046;-70
2023/05/16 09:52:41;;;;;;;7.75;1.90;;;12.90;99.90;;;;;;5111067;28;20571;-69
2023/05/16 09:55:08;;;;;;;7.13;1.60;;;13.00;99.90;;;;;;5112469;28;20143;-70
2023/05/16 09:57:38;;;;;;;7.07;1.70;;;13.10;99.90;;;;;;5111794;28;20079;-71
2023/05/16 10:00:12;;;;;;;9.80;2.20;;;13.00;99.90;;;;;;5111473;28;20043;-69
2023/05/16 10:02:38;;;;;;;6.60;1.80;;;13.00;99.90;;;;;;5114677;28;20043;-70
2023/05/16 10:05:05;;;;;;;11.23;3.38;;;13.00;99.90;;;;;;5097923;28;20123;-70
2023/05/16 10:07:34;;;;;;;9.52;1.90;;;12.90;99.90;;;;;;5105152;28;20485;-70
2023/05/16 10:10:04;;;;;;;9.85;1.73;;;12.70;99.90;;;;;;5077990;28;20036;-68
2023/05/16 10:12:31;;;;;;;8.10;1.70;;;12.60;99.90;;;;;;5076643;28;20035;-70
2023/05/16 10:14:59;;;;;;;6.50;1.85;;;12.60;99.90;;;;;;5095994;28;20116;-69
2023/05/16 10:17:26;;;;;;;7.05;1.73;;;12.70;99.90;;;;;;5095159;28;20035;-70
2023/05/16 10:19:53;;;;;;;8.63;2.10;;;12.90;99.90;;;;;;5094302;28;20036;-70
2023/05/16 10:22:20;;;;;;;8.10;1.42;;;13.10;99.90;;;;;;5077373;28;20032;-74
2023/05/16 10:25:09;;;;;;;10.82;2.05;;;13.20;99.90;;;;;;5094379;28;20036;-72
2023/05/16 10:27:35;;;;;;;6.75;1.75;;;13.10;99.90;;;;;;5094522;28;20043;-71
2023/05/16 10:30:01;;;;;;;12.30;2.55;;;13.10;99.90;;;;;;5094737;28;20115;-72
2023/05/16 10:32:28;;;;;;;5.70;1.75;;;13.00;99.90;;;;;;5103639;28;20041;-72
2023/05/16 10:34:59;;;;;;;11.05;2.72;;;13.00;99.90;;;;;;5114617;28;20044;-71
2023/05/16 10:37:26;;;;;;;9.13;2.63;;;12.90;99.90;;;;;;5114468;28;20492;-71
2023/05/16 10:39:52;;;;;;;5.45;1.70;;;13.00;99.90;;;;;;5097598;28;20039;-71
2023/05/16 10:42:19;;;;;;;9.73;2.38;;;13.10;99.90;;;;;;5114311;28;20056;-70
2023/05/16 10:44:45;;;;;;;9.02;2.33;;;13.10;99.90;;;;;;5114769;28;20127;-70
2023/05/16 10:47:10;;;;;;;7.82;1.92;;;13.00;99.90;;;;;;5114048;28;20563;-71
2023/05/16 10:49:40;;;;;;;7.43;1.88;;;12.90;99.90;;;;;;5114434;28;20079;-69
2023/05/16 10:52:10;;;;;;;9.77;2.22;;;12.80;99.90;;;;;;5115655;28;20082;-70
2023/05/16 10:54:41;;;;;;;7.55;2.13;;;12.70;99.90;;;;;;5114122;28;20063;-69
2023/05/16 10:57:16;;;;;;;8.95;2.25;;;12.60;99.90;;;;;;5114306;28;20047;-69
2023/05/16 10:59:47;;;;;;;12.80;2.47;;;12.50;99.90;;;;;;5114194;28;20048;-70
2023/05/16 11:02:24;;;;;;;8.57;1.98;;;12.50;99.90;;;;;;5107615;28;20055;-71
2023/05/16 11:04:52;;;;;;;12.82;2.80;;;12.70;99.90;;;;;;5103485;28;20519;-67
2023/05/16 11:07:20;;;;;;;10.82;2.03;;;12.90;99.90;;;;;;5113219;28;20039;-70
2023/05/16 11:10:21;;;;;;;13.73;2.42;;;13.00;99.90;;;;;;5105725;28;20085;-66
2023/05/16 11:12:51;;;;;;;13.52;2.60;;;13.00;99.90;;;;;;5060210;28;20131;-62
2023/05/16 11:15:30;;;;;;;9.48;2.35;;;12.80;99.90;;;;;;5092934;28;20385;-62
2023/05/16 11:18:15;;;;;;;10.15;2.30;;;12.70;99.90;;;;;;5093588;28;20127;-62
2023/05/16 11:20:42;;;;;;;9.23;2.85;;;12.50;99.90;;;;;;5094377;28;20036;-62
2023/05/16 11:23:20;;;;;;;10.00;2.67;;;12.40;99.90;;;;;;5093883;28;20036;-62
2023/05/16 11:25:59;;;;;;;9.80;2.40;;;12.30;99.90;;;;;;5094526;28;20080;-62
2023/05/16 11:28:26;;;;;;;7.40;3.03;;;12.40;99.90;;;;;;5091997;28;20507;-62
2023/05/16 11:30:55;;;;;;;9.80;2.22;;;12.60;99.90;;;;;;5094482;28;20385;-62
2023/05/16 11:33:21;;;;;;;6.68;2.15;;;12.70;99.90;;;;;;5093617;28;20040;-62
2023/05/16 11:39:31;;;;;;;7.80;2.63;;;13.00;99.90;;;;;;5093686;28;20750;-62
2023/05/16 11:41:56;;;;;;;6.65;2.50;;;12.90;99.90;;;;;;5092353;28;20064;-62
2023/05/16 11:44:22;;;;;;;10.35;3.42;;;13.00;99.90;;;;;;5092276;28;20047;-62
2023/05/16 11:46:48;;;;;;;8.23;2.60;;;13.00;99.90;;;;;;5075761;28;20044;-62
2023/05/16 11:49:14;;;;;;;12.48;3.08;;;13.00;99.90;;;;;;5092976;28;20111;-62
2023/05/16 11:51:42;;;;;;;10.40;2.70;;;13.00;99.90;;;;;;5093678;28;20161;-61
2023/05/16 11:54:11;;;;;;;9.23;2.50;;;13.20;99.90;;;;;;5092974;28;20066;-62
2023/05/16 11:56:39;;;;;;;7.63;2.53;;;13.40;99.90;;;;;;5092804;28;20040;-62
2023/05/16 11:59:06;;;;;;;8.55;2.70;;;13.50;99.90;;;;;;5093767;28;20565;-62
2023/05/16 12:01:38;;;;;;;11.73;2.58;;;13.50;99.90;;;;;;5091845;28;20094;-61
2023/05/16 12:04:12;;;;;;;13.20;3.63;;;13.60;99.90;;;;;;5092036;28;20040;-62
2023/05/16 12:06:38;;;;;;;6.00;2.53;;;13.60;99.90;;;;;;5091984;28;20515;-62
2023/05/16 12:09:10;;;;;;;12.82;2.60;;;13.60;99.90;;;;;;5092412;28;20040;-62
2023/05/16 12:11:37;;;;;;;10.63;3.40;;;13.40;99.90;;;;;;5092640;28;20032;-62
2023/05/16 12:14:07;;;;;;;7.95;2.70;;;13.30;99.90;;;;;;5092332;28;20044;-62
2023/05/16 12:16:35;;;;;;;7.43;2.42;;;13.20;99.90;;;;;;5092888;28;20046;-62
2023/05/16 12:19:03;;;;;;;12.25;3.58;;;13.10;99.90;;;;;;5091403;28;20097;-62
2023/05/16 12:21:30;;;;;;;6.35;2.67;;;13.10;99.90;;;;;;5074814;28;20047;-62
2023/05/16 12:23:59;;;;;;;8.02;2.92;;;13.20;99.90;;;;;;5092046;28;20050;-62
2023/05/16 12:26:29;;;;;;;7.05;2.50;;;13.40;99.90;;;;;;5090449;28;20097;-62
2023/05/16 12:28:59;;;;;;;6.78;2.50;;;13.50;99.90;;;;;;5093176;28;20119;-62
2023/05/16 12:31:25;;;;;;;12.95;2.92;;;13.70;99.90;;;;;;5090811;28;20036;-61
2023/05/16 12:33:54;;;;;;;10.70;3.38;;;13.90;99.90;;;;;;5093351;28;20032;-62
2023/05/16 12:36:20;;;;;;;8.63;3.28;;;14.20;98.70;;;;;;5091499;28;20075;-62
2023/05/16 12:38:47;;;;;;;7.35;2.40;;;14.10;98.20;;;;;;5091282;28;20044;-62
2023/05/16 12:41:22;;;;;;;7.53;2.85;;;14.10;98.50;;;;;;5091529;28;20130;-62
2023/05/16 12:44:06;;;;;;;7.88;2.65;;;13.90;98.00;;;;;;5091742;28;20059;-62
2023/05/16 12:46:31;;;;;;;8.13;3.03;;;13.90;98.20;;;;;;5090066;28;20498;-62
2023/05/16 12:49:03;;;;;;;9.77;2.70;;;13.70;98.10;;;;;;5091598;28;20043;-62
2023/05/16 12:51:31;;;;;;;7.25;2.22;;;13.80;99.30;;;;;;5091366;28;20055;-62
2023/05/16 12:53:56;;;;;;;8.98;2.58;;;13.70;99.40;;;;;;5092158;28;20087;-62